Fairchild AFB, Washington
Current Conditions -  °F | °C
As of 8:58 AM on Friday 24 Oct 2014 (Local Time) from KSKA Reporting Station
Few Clouds Few Clouds  
Wind Chill: 42°   Ceiling: Unl
Heat Index: 42°   Visibility: 10mi
Dew Point: 40°   Wind: 2mph
Humidity: 95%   Direction: 130°SE
Pressure: 30.09"   Gusts: NA
Location:  47.61°N, 117.64°W
Report Text: KSKA 241558Z AUTO 13002KT 10SM FEW046 05/05 A3009 RMK AO2 SLP201 T00540047
Loading
Personal Weather Stations






























Interactive Weather Map
Tropical Storm Tracking
New forecast layout! Learn more

10-Day Weather Forecast

Advertisements
Track Severe Weather on mobile